createdAt,value
2018-07-14T00:00:46.943Z,75.60
2018-07-14T00:01:46.945Z,75.70
2018-07-14T00:02:46.927Z,75.37
2018-07-14T00:03:46.920Z,75.46
2018-07-14T00:04:47.021Z,74.89
2018-07-14T00:05:46.885Z,76.04
2018-07-14T00:06:46.884Z,75.85
2018-07-14T00:07:46.876Z,75.85
2018-07-14T00:08:46.893Z,75.56
2018-07-14T00:09:46.859Z,75.85
2018-07-14T00:10:46.857Z,76.42
2018-07-14T00:11:46.892Z,76.14
2018-07-14T00:12:46.832Z,76.04
2018-07-14T00:13:46.829Z,76.14
2018-07-14T00:14:46.817Z,76.23
2018-07-14T00:15:46.810Z,76.14
2018-07-14T00:16:46.785Z,76.23
2018-07-14T00:17:46.783Z,76.42
2018-07-14T00:18:47.076Z,76.42
2018-07-14T00:19:46.773Z,76.42
2018-07-14T00:20:46.747Z,75.75
2018-07-14T00:21:46.748Z,75.65
2018-07-14T00:22:46.757Z,76.42
2018-07-14T00:23:46.729Z,76.23
2018-07-14T00:24:47.092Z,75.85
2018-07-14T00:25:46.705Z,76.14
2018-07-14T00:26:46.706Z,76.32
2018-07-14T00:27:46.699Z,76.32
2018-07-14T00:28:46.749Z,76.42
2018-07-14T00:29:46.678Z,76.04
2018-07-14T00:30:46.652Z,76.42
2018-07-14T00:31:46.641Z,76.23
2018-07-14T00:32:46.630Z,76.14
2018-07-14T00:33:46.661Z,76.32
2018-07-14T00:34:47.585Z,76.23
2018-07-14T00:35:46.646Z,76.52
2018-07-14T00:36:46.608Z,76.23
2018-07-14T00:37:46.593Z,76.42
2018-07-14T00:38:46.589Z,76.62
2018-07-14T00:39:46.706Z,76.14
2018-07-14T00:40:46.567Z,76.23
2018-07-14T00:41:48.089Z,76.42
2018-07-14T00:42:46.545Z,76.23
2018-07-14T00:43:47.094Z,76.23
2018-07-14T00:44:46.566Z,76.19
2018-07-14T00:45:46.522Z,76.32
2018-07-14T00:46:46.598Z,76.19
2018-07-14T00:47:46.511Z,76.29
2018-07-14T00:48:46.507Z,76.19
2018-07-14T00:49:46.489Z,76.39
2018-07-14T00:50:46.484Z,76.39
2018-07-14T00:51:46.451Z,76.48
2018-07-14T00:52:46.482Z,76.48
2018-07-14T00:53:46.435Z,76.00
2018-07-14T00:54:47.106Z,76.10
2018-07-14T00:55:46.424Z,76.57
2018-07-14T00:56:46.473Z,76.48
2018-07-14T00:57:46.399Z,76.39
2018-07-14T00:58:46.394Z,76.39
2018-07-14T00:59:46.387Z,76.19
2018-07-14T01:00:46.450Z,76.48
2018-07-14T01:01:46.385Z,76.48
2018-07-14T01:02:46.441Z,76.19
2018-07-14T01:03:46.347Z,76.67
2018-07-14T01:04:46.334Z,76.77
2018-07-14T01:05:46.338Z,76.77
2018-07-14T01:06:46.348Z,76.39
2018-07-14T01:07:46.382Z,76.77
2018-07-14T01:08:46.307Z,76.77
2018-07-14T01:09:46.356Z,76.57
2018-07-14T01:10:46.375Z,76.77
2018-07-14T01:11:46.321Z,76.39
2018-07-14T01:12:46.366Z,76.48
2018-07-14T01:13:46.383Z,76.19
2018-07-14T01:14:46.422Z,76.39
2018-07-14T01:15:46.364Z,76.19
2018-07-14T01:16:46.310Z,76.29
2018-07-14T01:17:46.269Z,76.39
2018-07-14T01:18:46.300Z,76.19
2018-07-14T01:19:46.449Z,76.19
2018-07-14T01:20:46.224Z,76.29
2018-07-14T01:21:46.281Z,76.39
2018-07-14T01:22:46.199Z,76.48
2018-07-14T01:23:46.187Z,76.48
2018-07-14T01:24:47.147Z,76.73
2018-07-14T01:25:46.172Z,76.54
2018-07-14T01:26:46.125Z,76.77
2018-07-14T01:27:46.114Z,76.92
2018-07-14T01:28:46.113Z,76.54
2018-07-14T01:29:46.090Z,76.86
2018-07-14T01:30:46.098Z,76.73
2018-07-14T01:31:46.165Z,76.57
2018-07-14T01:32:46.100Z,76.86
2018-07-14T01:33:46.058Z,76.64
2018-07-14T01:34:46.235Z,76.82
2018-07-14T01:35:46.166Z,76.86
2018-07-14T01:36:46.102Z,76.39
2018-07-14T01:37:46.039Z,76.44
2018-07-14T01:38:46.062Z,76.54
2018-07-14T01:39:46.069Z,76.35
2018-07-14T01:40:46.242Z,76.06
2018-07-14T01:41:47.824Z,76.44
2018-07-14T01:42:46.019Z,76.35
2018-07-14T01:43:46.084Z,76.06
2018-07-14T01:44:46.042Z,76.25
2018-07-14T01:45:47.288Z,76.54
2018-07-14T01:46:46.075Z,76.44
2018-07-14T01:47:46.029Z,76.92
2018-07-14T01:48:45.993Z,76.54
2018-07-14T01:49:45.945Z,76.35
2018-07-14T01:50:46.212Z,76.64
2018-07-14T01:51:46.000Z,76.73
2018-07-14T01:52:45.903Z,77.02
2018-07-14T01:53:45.917Z,76.44
2018-07-14T01:54:46.061Z,76.64
2018-07-14T01:55:46.180Z,76.64
2018-07-14T01:56:45.948Z,77.21
2018-07-14T01:57:46.180Z,77.50
2018-07-14T01:58:56.400Z,77.59
2018-07-14T01:59:46.047Z,77.31
2018-07-14T02:00:47.930Z,77.08
2018-07-14T02:01:45.997Z,77.17
2018-07-14T02:02:45.935Z,77.40
2018-07-14T02:03:46.856Z,76.92
2018-07-14T02:04:56.735Z,77.36
2018-07-14T02:05:45.873Z,77.31
2018-07-14T02:06:46.690Z,77.31
2018-07-14T02:07:46.773Z,76.98
2018-07-14T02:08:45.855Z,76.98
2018-07-14T02:09:47.608Z,77.46
2018-07-14T02:13:30.575Z,77.65
2018-07-14T02:14:30.571Z,78.22
2018-07-14T02:15:30.533Z,77.94
2018-07-14T02:16:30.545Z,78.13
2018-07-14T02:17:30.637Z,78.03
2018-07-14T02:18:30.609Z,77.75
2018-07-14T02:19:30.782Z,77.55
2018-07-14T02:20:30.573Z,77.84
2018-07-14T02:21:30.601Z,77.84
2018-07-14T02:22:30.499Z,77.46
2018-07-14T02:23:30.473Z,77.65
2018-07-14T02:24:30.447Z,77.36
2018-07-14T02:25:30.535Z,77.84
2018-07-14T02:26:30.585Z,77.55
2018-07-14T02:27:30.693Z,78.13
2018-07-14T02:28:30.464Z,78.13
2018-07-14T02:29:30.493Z,78.32
2018-07-14T02:30:31.115Z,78.03
2018-07-14T02:31:30.659Z,77.65
2018-07-14T02:32:30.785Z,77.55
2018-07-14T02:33:31.190Z,77.36
2018-07-14T02:34:30.789Z,78.99
2018-07-14T02:35:31.206Z,78.70
2018-07-14T02:36:30.569Z,78.61
2018-07-14T02:37:30.521Z,78.42
2018-07-14T02:38:30.572Z,78.61
2018-07-14T02:39:30.522Z,78.51
2018-07-14T02:40:30.950Z,78.51
2018-07-14T02:41:32.117Z,78.32
2018-07-14T02:42:33.152Z,78.32
2018-07-14T02:43:30.414Z,78.32
2018-07-14T02:44:30.364Z,78.70
2018-07-14T02:45:30.474Z,78.70
2018-07-14T02:46:30.220Z,78.42
2018-07-14T02:47:30.344Z,78.61
2018-07-14T02:48:30.364Z,78.70
2018-07-14T02:49:31.206Z,78.80
2018-07-14T02:50:30.421Z,78.76
2018-07-14T02:51:30.204Z,78.66
2018-07-14T02:52:30.420Z,78.51
2018-07-14T02:53:30.226Z,78.42
2018-07-14T02:54:30.228Z,78.61
2018-07-14T02:55:30.335Z,79.05
2018-07-14T02:56:30.976Z,78.89
2018-07-14T02:57:30.297Z,79.14
2018-07-14T02:58:30.264Z,79.05
2018-07-14T02:59:31.008Z,79.24
2018-07-14T03:00:30.536Z,78.76
2018-07-14T03:01:30.168Z,78.47
2018-07-14T03:02:30.107Z,78.76
2018-07-14T03:03:30.068Z,78.57
2018-07-14T03:04:30.144Z,78.66
2018-07-14T03:05:30.056Z,78.47
2018-07-14T03:06:30.027Z,78.51
2018-07-14T03:07:30.001Z,78.57
2018-07-14T03:08:29.990Z,78.51
2018-07-14T03:09:30.040Z,78.86
2018-07-14T03:10:31.094Z,79.14
2018-07-14T03:11:29.975Z,78.95
2018-07-14T03:12:29.940Z,78.66
2018-07-14T03:13:29.930Z,79.05
2018-07-14T03:14:29.964Z,78.76
2018-07-14T03:15:29.901Z,78.47
2018-07-14T03:16:29.927Z,78.47
2018-07-14T03:17:29.948Z,78.47
2018-07-14T03:18:29.926Z,78.76
2018-07-14T03:19:29.895Z,78.57
2018-07-14T03:20:29.895Z,78.38
2018-07-14T03:21:29.943Z,78.38
2018-07-14T03:22:30.427Z,78.51
2018-07-14T03:23:29.874Z,78.47
2018-07-14T03:24:29.841Z,78.51
2018-07-14T03:25:29.829Z,78.76
2018-07-14T03:26:29.803Z,78.80
2018-07-14T03:27:29.889Z,79.18
2018-07-14T03:28:34.248Z,79.05
2018-07-14T03:29:29.807Z,78.86
2018-07-14T03:30:29.790Z,78.57
2018-07-14T03:31:29.776Z,78.76
2018-07-14T03:32:29.857Z,78.95
2018-07-14T03:33:29.784Z,78.76
2018-07-14T03:34:29.728Z,78.86
2018-07-14T03:35:29.946Z,79.24
2018-07-14T03:36:29.686Z,78.57
2018-07-14T03:37:29.679Z,78.66
2018-07-14T03:38:29.740Z,78.47
2018-07-14T03:39:29.755Z,78.51
2018-07-14T03:40:30.441Z,78.42
2018-07-14T03:41:29.656Z,78.80
2018-07-14T03:42:30.417Z,78.51
2018-07-14T03:43:29.969Z,78.70
2018-07-14T03:44:29.625Z,78.70
2018-07-14T03:45:29.608Z,78.32
2018-07-14T03:46:29.668Z,78.61
2018-07-14T03:47:29.570Z,78.51
2018-07-14T03:48:29.598Z,78.51
2018-07-14T03:49:29.581Z,78.51
2018-07-14T03:50:29.570Z,78.22
2018-07-14T03:51:29.906Z,78.42
2018-07-14T03:52:29.571Z,78.70
2018-07-14T03:53:29.577Z,78.51
2018-07-14T03:54:29.500Z,78.80
2018-07-14T03:55:29.510Z,78.51
2018-07-14T03:56:29.477Z,78.51
2018-07-14T03:57:30.415Z,78.51
2018-07-14T03:58:29.512Z,78.70
2018-07-14T03:59:29.446Z,78.61
2018-07-14T04:00:29.444Z,78.22
2018-07-14T04:01:30.426Z,78.22
2018-07-14T04:02:29.470Z,78.51
2018-07-14T04:03:30.425Z,78.32
2018-07-14T04:04:29.390Z,78.22
2018-07-14T04:05:29.455Z,78.22
2018-07-14T04:06:29.407Z,78.80
2018-07-14T04:07:29.380Z,78.22
2018-07-14T04:08:29.376Z,78.51
2018-07-14T04:09:29.344Z,78.42
2018-07-14T04:10:29.327Z,78.03
2018-07-14T04:11:29.310Z,78.51
2018-07-14T04:12:29.306Z,78.03
2018-07-14T04:13:29.352Z,78.32
2018-07-14T04:14:29.280Z,78.13
2018-07-14T04:15:29.293Z,78.80
2018-07-14T04:16:29.270Z,78.51
2018-07-14T04:17:29.257Z,78.32
2018-07-14T04:18:29.240Z,78.51
2018-07-14T04:19:29.245Z,78.51
2018-07-14T04:20:29.229Z,78.42
2018-07-14T04:21:29.225Z,78.89
2018-07-14T04:22:29.196Z,78.32
2018-07-14T04:23:29.208Z,78.51
2018-07-14T04:24:29.182Z,78.13
2018-07-14T04:25:29.178Z,78.51
2018-07-14T04:26:29.176Z,78.51
2018-07-14T04:27:29.186Z,78.42
2018-07-14T04:28:29.144Z,78.51
2018-07-14T04:29:29.141Z,78.13
2018-07-14T04:30:29.124Z,78.13
2018-07-14T04:31:29.109Z,78.55
2018-07-14T04:32:29.103Z,78.51
2018-07-14T04:33:29.086Z,78.22
2018-07-14T04:34:29.182Z,77.78
2018-07-14T04:35:29.092Z,78.61
2018-07-14T04:36:29.187Z,78.74
2018-07-14T04:37:29.043Z,78.32
2018-07-14T04:38:29.041Z,78.36
2018-07-14T04:39:29.041Z,78.36
2018-07-14T04:40:29.017Z,78.32
2018-07-14T04:41:29.264Z,78.32
2018-07-14T04:42:29.056Z,78.74
2018-07-14T04:43:28.996Z,78.27
2018-07-14T04:44:28.970Z,78.36
2018-07-14T04:45:28.991Z,78.36
2018-07-14T04:46:28.967Z,78.17
2018-07-14T04:47:28.988Z,78.07
2018-07-14T04:48:28.934Z,78.36
2018-07-14T04:49:28.921Z,77.78
2018-07-14T04:50:28.923Z,78.07
2018-07-14T04:51:28.918Z,78.07
2018-07-14T04:52:28.894Z,77.78
2018-07-14T04:53:28.878Z,78.17
2018-07-14T04:54:28.871Z,78.27
2018-07-14T04:55:28.867Z,78.36
2018-07-14T04:56:28.859Z,78.17
2018-07-14T04:57:28.878Z,77.50
2018-07-14T04:58:28.840Z,77.69
2018-07-14T04:59:28.816Z,77.88
2018-07-14T05:00:28.812Z,78.17
2018-07-14T05:01:28.800Z,78.27
2018-07-14T05:02:28.859Z,77.97
2018-07-14T05:03:28.794Z,77.31
2018-07-14T05:04:28.796Z,77.78
2018-07-14T05:05:28.766Z,77.40
2018-07-14T05:06:28.832Z,77.69
2018-07-14T05:07:28.753Z,77.50
2018-07-14T05:08:28.760Z,77.78
2018-07-14T05:09:28.718Z,77.40
2018-07-14T05:10:28.721Z,77.59
2018-07-14T05:11:28.702Z,77.78
2018-07-14T05:12:28.686Z,77.78
2018-07-14T05:13:28.980Z,77.69
2018-07-14T05:14:28.678Z,77.59
2018-07-14T05:15:28.664Z,77.50
2018-07-14T05:16:28.672Z,77.50
2018-07-14T05:17:28.644Z,77.78
2018-07-14T05:18:28.635Z,77.88
2018-07-14T05:19:28.992Z,77.59
2018-07-14T05:20:28.621Z,77.69
2018-07-14T05:21:28.676Z,77.82
2018-07-14T05:22:28.609Z,77.82
2018-07-14T05:23:28.592Z,77.92
2018-07-14T05:24:28.574Z,77.82
2018-07-14T05:25:28.641Z,77.69
2018-07-14T05:26:28.562Z,77.40
2018-07-14T05:27:28.540Z,77.69
2018-07-14T05:28:28.592Z,78.02
2018-07-14T05:29:28.531Z,78.02
2018-07-14T05:30:28.518Z,78.02
2018-07-14T05:31:28.520Z,78.20
2018-07-14T05:32:28.495Z,77.63
2018-07-14T05:33:28.497Z,77.82
2018-07-14T05:34:28.480Z,77.92
2018-07-14T05:35:28.472Z,77.73
2018-07-14T05:36:28.456Z,77.82
2018-07-14T05:37:28.440Z,77.73
2018-07-14T05:38:28.435Z,77.82
2018-07-14T05:39:28.464Z,78.78
2018-07-14T05:40:28.425Z,78.59
2018-07-14T05:41:28.416Z,78.49
2018-07-14T05:42:28.418Z,77.73
2018-07-14T05:43:28.406Z,78.20
2018-07-14T05:44:28.377Z,78.20
2018-07-14T05:45:28.406Z,77.92
2018-07-14T05:46:28.428Z,78.20
2018-07-14T05:47:28.393Z,78.40
2018-07-14T05:48:28.341Z,77.82
2018-07-14T05:49:28.336Z,77.92
2018-07-14T05:50:28.320Z,77.92
2018-07-14T05:51:28.311Z,78.20
2018-07-14T05:52:28.335Z,77.82
2018-07-14T05:53:28.300Z,77.92
2018-07-14T05:54:28.282Z,78.02
2018-07-14T05:55:28.271Z,77.82
2018-07-14T05:56:28.268Z,78.59
2018-07-14T05:57:28.332Z,78.40
2018-07-14T05:58:28.255Z,78.40
2018-07-14T05:59:28.242Z,78.59
2018-07-14T06:00:28.234Z,78.49
2018-07-14T06:01:28.224Z,78.15
2018-07-14T06:02:28.207Z,77.86
2018-07-14T06:03:28.216Z,78.05
2018-07-14T06:04:28.182Z,78.63
2018-07-14T06:05:28.179Z,78.05
2018-07-14T06:06:28.161Z,78.63
2018-07-14T06:07:28.208Z,78.44
2018-07-14T06:08:28.157Z,78.53
2018-07-14T06:09:28.145Z,78.40
2018-07-14T06:10:28.140Z,77.95
2018-07-14T06:11:28.135Z,78.44
2018-07-14T06:12:28.115Z,78.82
2018-07-14T06:13:28.110Z,78.34
2018-07-14T06:14:28.088Z,77.63
2018-07-14T06:15:28.093Z,77.63
2018-07-14T06:16:28.099Z,78.20
2018-07-14T06:17:28.069Z,77.92
2018-07-14T06:18:28.066Z,77.73
2018-07-14T06:19:28.130Z,78.78
2018-07-14T06:20:28.043Z,78.78
2018-07-14T06:21:28.033Z,78.78
2018-07-14T06:22:28.019Z,78.20
2018-07-14T06:23:28.014Z,78.05
2018-07-14T06:24:28.045Z,79.01
2018-07-14T06:25:27.990Z,78.15
2018-07-14T06:26:27.994Z,78.05
2018-07-14T06:27:27.977Z,78.05
2018-07-14T06:28:27.978Z,78.15
2018-07-14T06:29:28.483Z,78.63
2018-07-14T06:30:27.943Z,78.44
2018-07-14T06:31:27.976Z,77.95
2018-07-14T06:32:27.944Z,77.76
2018-07-14T06:33:27.921Z,77.95
2018-07-14T06:34:27.922Z,77.95
2018-07-14T06:35:27.909Z,78.05
2018-07-14T06:36:28.035Z,78.05
2018-07-14T06:37:27.902Z,77.86
2018-07-14T06:38:27.921Z,78.15
2018-07-14T06:39:27.882Z,77.67
2018-07-14T06:40:27.853Z,77.76
2018-07-14T06:41:27.854Z,77.86
2018-07-14T06:42:27.880Z,77.48
2018-07-14T06:43:27.828Z,78.05
2018-07-14T06:44:27.811Z,78.05
2018-07-14T06:45:27.810Z,77.76
2018-07-14T06:46:27.831Z,78.19
2018-07-14T06:47:27.845Z,78.25
2018-07-14T06:48:27.779Z,78.25
2018-07-14T06:49:27.775Z,77.86
2018-07-14T06:50:27.772Z,78.15
2018-07-14T06:51:27.748Z,77.48
2018-07-14T06:52:27.749Z,78.05
2018-07-14T06:53:27.742Z,77.61
2018-07-14T06:54:27.725Z,77.04
2018-07-14T06:55:27.708Z,77.61
2018-07-14T06:56:27.709Z,77.13
2018-07-14T06:57:27.692Z,77.13
2018-07-14T06:58:27.710Z,77.33
2018-07-14T06:59:27.685Z,76.46
2018-07-14T07:00:27.673Z,77.51
2018-07-14T07:01:27.671Z,77.51
2018-07-14T07:02:27.653Z,77.51
2018-07-14T07:03:27.723Z,76.94
2018-07-14T07:04:27.639Z,77.13
2018-07-14T07:05:27.627Z,77.42
2018-07-14T07:06:27.658Z,76.46
2018-07-14T07:07:27.606Z,76.75
2018-07-14T07:08:27.631Z,76.84
2018-07-14T07:09:27.655Z,76.75
2018-07-14T07:10:27.580Z,76.84
2018-07-14T07:11:27.564Z,76.75
2018-07-14T07:12:27.572Z,76.75
2018-07-14T07:13:27.561Z,76.46
2018-07-14T07:14:27.559Z,77.23
2018-07-14T07:15:27.566Z,76.65
2018-07-14T07:16:27.538Z,76.84
2018-07-14T07:17:27.527Z,76.56
2018-07-14T07:18:27.527Z,76.37
2018-07-14T07:19:27.504Z,76.94
2018-07-14T07:20:27.528Z,76.94
2018-07-14T07:21:27.555Z,76.88
2018-07-14T07:22:27.510Z,76.59
2018-07-14T07:23:27.479Z,76.50
2018-07-14T07:24:27.464Z,76.59
2018-07-14T07:25:27.493Z,76.50
2018-07-14T07:26:27.450Z,76.40
2018-07-14T07:27:27.513Z,76.12
2018-07-14T07:28:27.417Z,76.50
2018-07-14T07:29:27.423Z,76.40
2018-07-14T07:30:27.422Z,76.21
2018-07-14T07:31:27.411Z,76.31
2018-07-14T07:32:27.386Z,75.92
2018-07-14T07:33:27.382Z,76.31
2018-07-14T07:34:27.393Z,76.02
2018-07-14T07:35:27.376Z,75.92
2018-07-14T07:36:27.394Z,76.31
2018-07-14T07:37:27.347Z,76.50
2018-07-14T07:38:27.337Z,75.63
2018-07-14T07:39:27.330Z,75.92
2018-07-14T07:40:27.338Z,76.02
2018-07-14T07:41:27.398Z,75.82
2018-07-14T07:42:27.390Z,75.45
2018-07-14T07:43:27.357Z,75.35
2018-07-14T07:44:27.294Z,75.06
2018-07-14T07:45:27.282Z,75.25
2018-07-14T07:46:27.277Z,75.73
2018-07-14T07:47:27.299Z,75.63
2018-07-14T07:48:27.363Z,75.82
2018-07-14T07:49:27.264Z,75.92
2018-07-14T07:50:27.249Z,75.82
2018-07-14T07:51:27.234Z,76.12
2018-07-14T07:52:27.266Z,75.15
2018-07-14T07:53:27.537Z,75.25
2018-07-14T07:54:27.219Z,75.63
2018-07-14T07:55:27.273Z,76.06
2018-07-14T07:56:27.195Z,75.77
2018-07-14T07:57:27.182Z,75.29
2018-07-14T07:58:27.167Z,75.10
2018-07-14T07:59:27.239Z,75.29
2018-07-14T08:00:27.740Z,75.00
2018-07-14T08:01:27.157Z,75.10
2018-07-14T08:02:27.145Z,75.57
2018-07-14T08:03:27.132Z,75.57
2018-07-14T08:04:27.143Z,75.96
2018-07-14T08:05:27.125Z,75.57
2018-07-14T08:06:27.118Z,75.57
2018-07-14T08:07:27.111Z,75.04
2018-07-14T08:08:27.133Z,75.10
2018-07-14T08:09:28.071Z,75.42
2018-07-14T08:10:27.096Z,75.57
2018-07-14T08:11:27.069Z,74.52
2018-07-14T08:12:27.068Z,74.37
2018-07-14T08:13:27.092Z,74.85
2018-07-14T08:14:27.041Z,75.13
2018-07-14T08:15:27.049Z,74.55
2018-07-14T08:16:27.036Z,74.27
2018-07-14T08:17:27.107Z,74.55
2018-07-14T08:18:27.026Z,74.27
2018-07-14T08:19:27.015Z,74.55
2018-07-14T08:20:27.002Z,74.08
2018-07-14T08:21:27.000Z,73.60
2018-07-14T08:22:26.989Z,73.88
2018-07-14T08:23:26.986Z,74.17
2018-07-14T08:24:27.009Z,73.60
2018-07-14T08:25:26.984Z,73.69
2018-07-14T08:26:34.561Z,73.88
2018-07-14T08:27:27.036Z,74.46
2018-07-14T08:28:26.945Z,73.60
2018-07-14T08:29:26.931Z,73.79
2018-07-14T08:30:26.947Z,73.79
2018-07-14T08:31:27.229Z,73.79
2018-07-14T08:32:26.923Z,73.60
2018-07-14T08:33:26.958Z,72.83
2018-07-14T08:34:27.168Z,73.41
2018-07-14T08:35:26.897Z,73.02
2018-07-14T08:36:26.921Z,73.79
2018-07-14T08:37:26.897Z,73.60
2018-07-14T08:38:36.424Z,74.02
2018-07-14T08:39:26.863Z,73.73
2018-07-14T08:41:59.723Z,73.54
2018-07-14T08:42:06.339Z,73.06
2018-07-14T08:43:00.245Z,71.81
2018-07-14T08:44:09.170Z,71.91
2018-07-14T08:45:01.501Z,72.86
2018-07-14T08:46:00.232Z,73.06
2018-07-14T08:47:00.207Z,73.09
2018-07-14T08:48:00.733Z,73.47
2018-07-14T08:49:00.191Z,73.51
2018-07-14T08:50:00.202Z,73.71
2018-07-14T08:51:00.188Z,72.84
2018-07-14T08:52:00.176Z,73.03
2018-07-14T08:53:00.182Z,72.36
2018-07-14T08:54:00.174Z,73.03
2018-07-14T08:55:00.163Z,72.07
2018-07-14T08:56:00.150Z,72.07
2018-07-14T08:57:00.141Z,72.17
2018-07-14T08:58:00.140Z,72.26
2018-07-14T08:59:00.144Z,71.88
2018-07-14T09:00:00.178Z,72.01
2018-07-14T09:01:00.117Z,72.30
2018-07-14T09:02:00.465Z,72.30
2018-07-14T09:03:00.188Z,72.63
2018-07-14T09:04:00.427Z,71.31
2018-07-14T09:05:00.293Z,71.15
2018-07-14T09:06:00.267Z,71.15
2018-07-14T09:07:00.104Z,71.38
2018-07-14T09:08:00.084Z,68.97
2018-07-14T09:09:00.089Z,69.87
2018-07-14T09:10:00.125Z,69.04
2018-07-14T09:11:00.081Z,66.27
2018-07-14T09:12:00.083Z,65.50
2018-07-14T09:13:00.108Z,66.30
2018-07-14T09:14:00.068Z,65.47
2018-07-14T09:15:00.078Z,65.75
2018-07-14T09:16:00.194Z,65.50
2018-07-14T09:17:00.083Z,65.98
2018-07-14T09:18:00.078Z,65.01
2018-07-14T09:19:00.080Z,63.79
2018-07-14T09:20:00.097Z,64.27
2018-07-14T09:21:00.107Z,64.69
2018-07-14T09:22:00.078Z,64.47
2018-07-14T09:23:00.688Z,64.98
2018-07-14T09:24:00.064Z,64.40
2018-07-14T09:25:00.077Z,64.34
2018-07-14T09:26:01.711Z,64.65
2018-07-14T09:27:00.073Z,63.49
2018-07-14T09:28:00.066Z,59.23
2018-07-14T09:29:00.100Z,59.23
2018-07-14T09:30:00.076Z,61.07
2018-07-14T09:31:00.091Z,60.78
2018-07-14T09:32:00.077Z,61.82
2018-07-14T09:33:00.089Z,62.23
2018-07-14T09:34:00.073Z,62.13
2018-07-14T09:35:00.077Z,61.65
2018-07-14T09:36:00.081Z,62.52
2018-07-14T09:37:00.076Z,62.23
2018-07-14T09:38:00.141Z,60.10
2018-07-14T09:39:00.092Z,61.55
2018-07-14T09:40:00.103Z,62.07
2018-07-14T09:41:00.096Z,57.97
2018-07-14T09:42:00.104Z,55.90
2018-07-14T09:43:00.108Z,58.98
2018-07-14T09:44:00.115Z,59.84
2018-07-14T09:45:00.097Z,60.88
2018-07-14T09:46:00.200Z,61.08
2018-07-14T09:47:00.107Z,62.34
2018-07-14T09:48:00.115Z,62.50
2018-07-14T09:49:00.122Z,62.59
2018-07-14T09:50:00.117Z,62.79
2018-07-14T09:51:00.110Z,63.24
2018-07-14T09:52:00.134Z,62.08
2018-07-14T09:53:00.130Z,63.14
2018-07-14T09:54:00.840Z,63.05
2018-07-14T09:55:00.113Z,63.82
2018-07-14T09:56:00.112Z,63.89
2018-07-14T09:57:00.098Z,63.31
2018-07-14T09:58:00.180Z,62.53
2018-07-14T09:59:00.107Z,62.02
2018-07-14T10:00:00.103Z,62.02
2018-07-14T10:01:00.098Z,62.95
2018-07-14T10:02:00.095Z,63.15
2018-07-14T10:03:00.103Z,64.50
2018-07-14T10:04:00.104Z,64.50
2018-07-14T10:05:00.124Z,63.53
2018-07-14T10:06:00.129Z,63.15
2018-07-14T10:07:00.082Z,63.50
2018-07-14T10:08:00.093Z,64.47
2018-07-14T10:09:00.078Z,64.76
2018-07-14T10:10:00.182Z,64.76
2018-07-14T10:11:00.079Z,64.37
2018-07-14T10:12:00.070Z,64.66
2018-07-14T10:13:00.089Z,64.76
2018-07-14T10:14:00.060Z,65.14
2018-07-14T10:15:00.183Z,64.76
2018-07-14T10:16:00.345Z,65.14
2018-07-14T10:17:00.073Z,65.72
2018-07-14T10:18:00.049Z,65.91
2018-07-14T10:19:01.258Z,65.05
2018-07-14T10:20:00.102Z,64.18
2018-07-14T10:21:00.064Z,65.24
2018-07-14T10:22:00.038Z,63.43
2018-07-14T10:23:00.040Z,62.63
2018-07-14T10:24:00.027Z,63.43
2018-07-14T10:25:00.051Z,64.31
2018-07-14T10:26:00.075Z,64.50
2018-07-14T10:27:00.020Z,64.89
2018-07-14T10:28:00.976Z,64.31
2018-07-14T10:29:00.029Z,64.50
2018-07-14T10:30:00.018Z,64.63
2018-07-14T10:31:00.070Z,64.43
2018-07-14T10:32:12.771Z,64.53
2018-07-14T10:33:00.035Z,64.34
2018-07-14T10:34:00.816Z,64.82
2018-07-14T10:34:59.989Z,63.50
2018-07-14T10:35:59.986Z,63.31
2018-07-14T10:37:00.022Z,62.56
2018-07-14T10:37:59.977Z,62.76
2018-07-14T10:38:59.985Z,61.50
2018-07-14T10:39:59.979Z,61.40
2018-07-14T10:40:59.974Z,61.40
2018-07-14T10:42:00.064Z,61.69
2018-07-14T10:42:59.968Z,62.66
2018-07-14T10:43:59.955Z,61.37
2018-07-14T10:44:59.969Z,61.27
2018-07-14T10:45:59.952Z,60.21
2018-07-14T10:46:59.991Z,59.60
2018-07-14T10:48:00.022Z,60.38
2018-07-14T10:48:59.954Z,60.83
2018-07-14T10:49:59.954Z,61.99
2018-07-14T10:50:59.952Z,62.18
2018-07-14T10:51:59.957Z,62.37
2018-07-14T10:52:59.956Z,62.86
2018-07-14T10:53:59.977Z,63.95
2018-07-14T10:55:00.087Z,63.31
2018-07-14T10:55:59.941Z,63.11
2018-07-14T10:56:59.934Z,62.27
2018-07-14T10:58:01.821Z,62.05
2018-07-14T10:58:59.985Z,62.24
2018-07-14T10:59:59.924Z,62.53
2018-07-14T11:00:59.937Z,62.79
2018-07-14T11:01:59.918Z,62.82
2018-07-14T11:02:59.924Z,62.98
2018-07-14T11:04:01.791Z,63.08
2018-07-14T11:05:00.141Z,63.08
2018-07-14T11:05:59.912Z,63.08
2018-07-14T11:06:59.904Z,63.08
2018-07-14T11:07:59.915Z,64.05
2018-07-14T11:08:59.887Z,64.37
2018-07-14T11:09:59.903Z,62.24
2018-07-14T11:10:59.896Z,58.86
2018-07-14T11:11:59.924Z,57.82
2018-07-14T11:12:59.884Z,57.63
2018-07-14T11:13:59.877Z,57.15
2018-07-14T11:14:59.872Z,56.37
2018-07-14T11:15:59.878Z,56.45
2018-07-14T11:17:01.089Z,57.92
2018-07-14T11:18:07.963Z,59.01
2018-07-14T11:18:59.886Z,59.14
2018-07-14T11:19:59.868Z,60.33
2018-07-14T11:20:59.867Z,60.82
2018-07-14T11:21:59.864Z,60.04
2018-07-14T11:22:59.896Z,58.42
2018-07-14T11:23:59.867Z,57.75
2018-07-14T11:25:00.817Z,57.62
2018-07-14T11:25:59.913Z,57.91
2018-07-14T11:26:59.875Z,56.46
2018-07-14T11:28:00.024Z,57.81
2018-07-14T11:28:59.886Z,58.85
2018-07-14T11:29:59.918Z,57.79
2018-07-14T11:30:59.850Z,59.21
2018-07-14T11:31:59.886Z,60.17
2018-07-14T11:32:59.853Z,60.27
2018-07-14T11:33:59.866Z,60.85
2018-07-14T11:34:59.845Z,61.05
2018-07-14T11:35:59.845Z,61.15
2018-07-14T11:36:59.871Z,61.33
2018-07-14T11:37:59.846Z,61.05
2018-07-14T11:38:59.837Z,58.98
2018-07-14T11:39:59.840Z,59.28
2018-07-14T11:40:59.832Z,58.37
2018-07-14T11:41:59.871Z,59.83
2018-07-14T11:42:59.855Z,60.31
2018-07-14T11:43:59.828Z,61.08
2018-07-14T11:44:59.825Z,61.11
2018-07-14T11:45:59.821Z,61.79
2018-07-14T11:46:59.862Z,62.21
2018-07-14T11:47:59.859Z,60.75
2018-07-14T11:48:59.839Z,61.05
2018-07-14T11:49:59.823Z,60.95
2018-07-14T11:50:59.809Z,60.66
2018-07-14T11:51:59.843Z,60.75
2018-07-14T11:52:59.846Z,57.46
2018-07-14T11:53:59.793Z,58.21
2018-07-14T11:54:59.806Z,58.70
2018-07-14T11:55:59.804Z,59.25
2018-07-14T11:56:59.823Z,59.92
2018-07-14T11:57:59.787Z,60.89
2018-07-14T11:58:59.811Z,61.50
2018-07-14T11:59:59.863Z,61.89
2018-07-14T12:00:59.774Z,61.60
2018-07-14T12:01:59.777Z,60.82
2018-07-14T12:02:59.789Z,60.72
2018-07-14T12:03:59.770Z,60.24
2018-07-14T12:04:59.761Z,57.34
2018-07-14T12:05:59.801Z,56.15
2018-07-14T12:06:59.768Z,57.60
2018-07-14T12:07:59.821Z,57.99
2018-07-14T12:08:59.758Z,58.47
2018-07-14T12:09:59.749Z,58.35
2018-07-14T12:10:59.749Z,57.96
2018-07-14T12:11:59.748Z,58.06
2018-07-14T12:12:59.744Z,58.93
2018-07-14T12:13:59.797Z,59.80
2018-07-14T12:14:59.739Z,59.99
2018-07-14T12:15:59.731Z,59.70
2018-07-14T12:16:59.733Z,59.80
2018-07-14T12:17:59.720Z,59.22
2018-07-14T12:18:59.723Z,57.67
2018-07-14T12:19:59.732Z,57.48
2018-07-14T12:20:59.722Z,57.77
2018-07-14T12:21:59.729Z,57.93
2018-07-14T12:22:59.718Z,59.19
2018-07-14T12:23:59.714Z,58.80
2018-07-14T12:24:59.737Z,59.22
2018-07-14T12:25:59.700Z,59.22
2018-07-14T12:26:59.704Z,58.54
2018-07-14T12:27:59.696Z,58.83
2018-07-14T12:28:59.683Z,59.60
2018-07-14T12:29:59.714Z,59.99
2018-07-14T12:30:59.719Z,59.70
2018-07-14T12:31:59.722Z,59.80
2018-07-14T12:32:59.668Z,58.93
2018-07-14T12:33:59.669Z,59.70
2018-07-14T12:34:59.666Z,59.86
2018-07-14T12:35:59.658Z,59.58
2018-07-14T12:36:59.676Z,60.73
2018-07-14T12:37:59.652Z,60.64
2018-07-14T12:38:59.680Z,59.00
2018-07-14T12:39:59.635Z,59.96
2018-07-14T12:40:59.633Z,60.44
2018-07-14T12:41:59.675Z,60.73
2018-07-14T12:42:59.638Z,61.60
2018-07-14T12:43:59.617Z,60.16
2018-07-14T12:44:59.616Z,59.31
2018-07-14T12:45:59.618Z,58.70
2018-07-14T12:46:59.663Z,58.22
2018-07-14T12:47:59.610Z,58.51
2018-07-14T12:48:59.604Z,58.90
2018-07-14T12:49:59.600Z,59.80
2018-07-14T12:50:59.596Z,59.77
2018-07-14T12:51:59.672Z,60.06
2018-07-14T12:52:59.586Z,60.35
2018-07-14T12:53:59.572Z,60.93
2018-07-14T12:54:59.571Z,60.54
2018-07-14T12:55:59.559Z,60.93